createdAt,value
2023-05-20T00:02:05.834Z,100449.00
2023-05-20T00:04:34.119Z,100453.38
2023-05-20T00:07:03.970Z,100446.28
2023-05-20T00:09:32.254Z,100447.75
2023-05-20T00:12:02.755Z,100441.22
2023-05-20T00:14:31.111Z,100452.19
2023-05-20T00:16:59.515Z,100450.09
2023-05-20T00:19:28.029Z,100451.56
2023-05-20T00:21:58.046Z,100439.06
2023-05-20T00:24:26.596Z,100450.00
2023-05-20T00:26:55.154Z,100441.34
2023-05-20T00:29:24.810Z,100430.75
2023-05-20T00:31:53.133Z,100445.19
2023-05-20T00:34:21.767Z,100441.00
2023-05-20T00:36:51.580Z,100434.38
2023-05-20T00:39:19.905Z,100432.09
2023-05-20T00:41:48.199Z,100442.22
2023-05-20T00:44:18.079Z,100429.03
2023-05-20T00:46:50.611Z,100426.25
2023-05-20T00:49:19.540Z,100426.66
2023-05-20T00:51:48.577Z,100420.31
2023-05-20T00:54:17.241Z,100424.41
2023-05-20T00:56:46.329Z,100422.84
2023-05-20T00:59:14.712Z,100421.25
2023-05-20T01:01:43.586Z,100420.13
2023-05-20T01:04:13.441Z,100422.06
2023-05-20T01:06:41.919Z,100417.41
2023-05-20T01:09:10.311Z,100413.06
2023-05-20T01:11:46.080Z,100410.25
2023-05-20T01:14:17.439Z,100411.31
2023-05-20T01:16:48.179Z,100410.69
2023-05-20T01:19:28.513Z,100416.53
2023-05-20T01:21:58.301Z,100417.22
2023-05-20T01:24:28.150Z,100410.78
2023-05-20T01:26:58.092Z,100413.94
2023-05-20T01:29:26.761Z,100420.47
2023-05-20T01:31:58.536Z,100410.34
2023-05-20T01:34:27.238Z,100414.00
2023-05-20T01:36:56.989Z,100416.03
2023-05-20T01:39:26.615Z,100415.22
2023-05-20T01:41:57.772Z,100412.50
2023-05-20T01:44:26.191Z,100419.44
2023-05-20T01:46:55.774Z,100421.69
2023-05-20T01:49:24.052Z,100411.13
2023-05-20T01:51:52.382Z,100417.06
2023-05-20T01:54:21.453Z,100417.16
2023-05-20T01:56:51.485Z,100414.09
2023-05-20T01:59:21.231Z,100430.41
2023-05-20T02:01:49.604Z,100427.94
2023-05-20T02:04:19.263Z,100429.53
2023-05-20T02:06:47.572Z,100430.63
2023-05-20T02:09:16.023Z,100434.50
2023-05-20T02:11:44.376Z,100430.47
2023-05-20T02:14:12.741Z,100439.44
2023-05-20T02:16:42.558Z,100436.66
2023-05-20T02:19:13.064Z,100442.66
2023-05-20T02:21:44.183Z,100441.09
2023-05-20T02:24:12.506Z,100437.25
2023-05-20T02:26:41.270Z,100444.69
2023-05-20T02:29:09.762Z,100447.47
2023-05-20T02:31:38.208Z,100433.75
2023-05-20T02:34:08.013Z,100445.81
2023-05-20T02:36:36.618Z,100439.63
2023-05-20T02:39:05.236Z,100447.41
2023-05-20T02:41:33.715Z,100439.16
2023-05-20T02:44:02.122Z,100440.75
2023-05-20T02:46:30.620Z,100440.75
2023-05-20T02:48:58.913Z,100437.06
2023-05-20T02:51:29.968Z,100447.88
2023-05-20T02:53:58.283Z,100452.59
2023-05-20T02:56:27.215Z,100460.16
2023-05-20T02:58:55.988Z,100453.97
2023-05-20T03:01:24.573Z,100465.22
2023-05-20T03:03:52.974Z,100462.09
2023-05-20T03:06:21.360Z,100464.81
2023-05-20T03:08:51.143Z,100464.47
2023-05-20T03:11:19.651Z,100469.88
2023-05-20T03:13:47.867Z,100469.69
2023-05-20T03:16:16.825Z,100460.25
2023-05-20T03:18:46.462Z,100463.91
2023-05-20T03:21:14.825Z,100470.38
2023-05-20T03:23:43.061Z,100455.69
2023-05-20T03:26:13.122Z,100456.56
2023-05-20T03:28:41.529Z,100460.94
2023-05-20T03:31:09.842Z,100462.00
2023-05-20T03:33:38.204Z,100448.88
2023-05-20T03:36:07.857Z,100458.50
2023-05-20T03:38:36.339Z,100466.06
2023-05-20T03:41:04.735Z,100464.75
2023-05-20T03:43:34.432Z,100464.28
2023-05-20T03:46:02.673Z,100453.94
2023-05-20T03:48:31.203Z,100454.16
2023-05-20T03:50:59.484Z,100462.44
2023-05-20T03:53:27.750Z,100471.47
2023-05-20T03:55:56.063Z,100464.38
2023-05-20T03:58:25.375Z,100452.22
2023-05-20T04:00:55.055Z,100459.66
2023-05-20T04:03:23.672Z,100464.31
2023-05-20T04:05:52.208Z,100467.25
2023-05-20T04:08:22.171Z,100465.22
2023-05-20T04:10:50.480Z,100475.59
2023-05-20T04:13:18.769Z,100463.00
2023-05-20T04:15:47.133Z,100461.31
2023-05-20T04:18:16.894Z,100437.88
2023-05-20T04:20:45.518Z,100445.75
2023-05-20T04:23:14.292Z,100442.94
2023-05-20T04:25:44.707Z,100438.31
2023-05-20T04:28:14.258Z,100429.78
2023-05-20T04:30:42.598Z,100429.78
2023-05-20T04:33:11.353Z,100431.69
2023-05-20T04:35:41.857Z,100442.94
2023-05-20T04:38:10.278Z,100434.06
2023-05-20T04:40:39.900Z,100437.88
2023-05-20T04:43:08.244Z,100432.25
2023-05-20T04:45:36.984Z,100431.59
2023-05-20T04:48:06.222Z,100422.81
2023-05-20T04:50:34.970Z,100423.81
2023-05-20T04:53:04.658Z,100427.97
2023-05-20T04:55:33.406Z,100415.59
2023-05-20T04:58:02.208Z,100412.22
2023-05-20T05:00:30.549Z,100417.63
2023-05-20T05:02:59.020Z,100407.63
2023-05-20T05:05:27.540Z,100412.00
2023-05-20T05:07:55.845Z,100408.84
2023-05-20T05:10:25.644Z,100399.38
2023-05-20T05:12:53.918Z,100399.03
2023-05-20T05:15:22.349Z,100402.06
2023-05-20T05:17:51.021Z,100379.63
2023-05-20T05:20:19.819Z,100383.78
2023-05-20T05:22:48.139Z,100387.75
2023-05-20T05:25:16.531Z,100393.59
2023-05-20T05:27:47.939Z,100389.97
2023-05-20T05:30:16.266Z,100388.09
2023-05-20T05:32:44.741Z,100399.78
2023-05-20T05:35:13.093Z,100380.69
2023-05-20T05:37:41.406Z,100392.53
2023-05-20T05:40:10.392Z,100399.19
2023-05-20T05:42:38.647Z,100391.69
2023-05-20T05:45:10.134Z,100397.81
2023-05-20T05:47:38.489Z,100380.88
2023-05-20T05:50:07.389Z,100393.78
2023-05-20T05:52:35.716Z,100412.50
2023-05-20T05:55:04.406Z,100421.34
2023-05-20T05:57:32.816Z,100407.66
2023-05-20T06:00:01.388Z,100409.56
2023-05-20T06:02:31.417Z,100398.50
2023-05-20T06:04:59.860Z,100393.09
2023-05-20T06:07:28.137Z,100389.91
2023-05-20T06:09:56.529Z,100401.06
2023-05-20T06:12:25.012Z,100387.88
2023-05-20T06:14:53.280Z,100395.78
2023-05-20T06:17:21.846Z,100394.25
2023-05-20T06:19:51.553Z,100400.91
2023-05-20T06:22:19.992Z,100420.44
2023-05-20T06:24:48.437Z,100424.31
2023-05-20T06:27:16.711Z,100414.94
2023-05-20T06:29:45.064Z,100398.56
2023-05-20T06:32:13.440Z,100413.06
2023-05-20T06:34:42.213Z,100427.25
2023-05-20T06:37:12.106Z,100413.53
2023-05-20T06:39:40.359Z,100409.84
2023-05-20T06:42:08.628Z,100415.78
2023-05-20T06:44:36.963Z,100412.09
2023-05-20T06:47:05.650Z,100405.22
2023-05-20T06:49:33.930Z,100409.38
2023-05-20T06:52:02.287Z,100441.72
2023-05-20T06:54:34.251Z,100420.00
2023-05-20T06:57:02.770Z,100428.19
2023-05-20T06:59:31.179Z,100421.19
2023-05-20T07:01:59.943Z,100424.81
2023-05-20T07:04:28.363Z,100437.00
2023-05-20T07:06:56.878Z,100441.41
2023-05-20T07:09:25.266Z,100442.41
2023-05-20T07:11:55.041Z,100458.41
2023-05-20T07:14:23.326Z,100451.19
2023-05-20T07:16:51.826Z,100446.09
2023-05-20T07:19:20.353Z,100468.09
2023-05-20T07:21:49.917Z,100465.66
2023-05-20T07:24:18.354Z,100479.38
2023-05-20T07:26:46.695Z,100462.81
2023-05-20T07:29:16.461Z,100478.97
2023-05-20T07:31:44.959Z,100490.53
2023-05-20T07:34:13.283Z,100480.97
2023-05-20T07:36:41.963Z,100472.66
2023-05-20T07:39:13.492Z,100499.19
2023-05-20T07:41:43.550Z,100487.81
2023-05-20T07:44:13.181Z,100505.22
2023-05-20T07:46:43.125Z,100494.25
2023-05-20T07:49:11.664Z,100489.09
2023-05-20T07:51:40.025Z,100497.59
2023-05-20T07:54:08.516Z,100502.72
2023-05-20T07:56:36.782Z,100487.91
2023-05-20T07:59:05.276Z,100514.38
2023-05-20T08:01:33.631Z,100509.75
2023-05-20T08:04:03.619Z,100512.00
2023-05-20T08:06:32.775Z,100509.19
2023-05-20T08:09:01.668Z,100505.06
2023-05-20T08:11:29.985Z,100515.09
2023-05-20T08:13:58.304Z,100509.91
2023-05-20T08:16:26.728Z,100510.16
2023-05-20T08:18:55.131Z,100510.16
2023-05-20T08:21:24.957Z,100519.38
2023-05-20T08:23:53.348Z,100525.56
2023-05-20T08:26:22.109Z,100528.28
2023-05-20T08:28:50.621Z,100520.50
2023-05-20T08:31:19.761Z,100511.50
2023-05-20T08:33:48.199Z,100518.94
2023-05-20T08:36:17.247Z,100508.47
2023-05-20T08:38:47.149Z,100518.69
2023-05-20T08:41:15.822Z,100520.97
2023-05-20T08:43:45.217Z,100518.25
2023-05-20T08:46:16.192Z,100510.44
2023-05-20T08:48:46.403Z,100515.13
2023-05-20T08:51:17.046Z,100515.44
2023-05-20T08:53:47.865Z,100501.84
2023-05-20T08:56:18.092Z,100495.16
2023-05-20T08:58:46.978Z,100498.97
2023-05-20T09:01:15.445Z,100498.13
2023-05-20T09:03:44.650Z,100494.16
2023-05-20T09:06:18.477Z,100491.72
2023-05-20T09:08:50.466Z,100498.72
2023-05-20T09:11:18.919Z,100492.53
2023-05-20T09:13:47.437Z,100498.19
2023-05-20T09:16:16.065Z,100492.75
2023-05-20T09:18:44.477Z,100495.28
2023-05-20T09:21:12.959Z,100488.00
2023-05-20T09:23:41.524Z,100490.88
2023-05-20T09:26:11.777Z,100478.97
2023-05-20T09:28:41.146Z,100477.75
2023-05-20T09:31:10.078Z,100480.59
2023-05-20T09:33:38.800Z,100476.00
2023-05-20T09:36:09.754Z,100481.06
2023-05-20T09:38:40.125Z,100471.19
2023-05-20T09:41:12.703Z,100475.78
2023-05-20T09:43:41.811Z,100469.91
2023-05-20T09:46:10.510Z,100464.19
2023-05-20T09:48:39.190Z,100462.41
2023-05-20T09:51:08.365Z,100459.06
2023-05-20T09:53:37.907Z,100459.81
2023-05-20T09:56:06.800Z,100449.44
2023-05-20T09:58:37.905Z,100454.09
2023-05-20T10:01:07.704Z,100448.59
2023-05-20T10:03:36.400Z,100441.41
2023-05-20T10:06:21.945Z,100439.06
2023-05-20T10:09:04.919Z,100442.16
2023-05-20T10:11:43.653Z,100444.59
2023-05-20T10:14:26.948Z,100447.41
2023-05-20T10:17:03.123Z,100440.84
2023-05-20T10:19:33.897Z,100436.25
2023-05-20T10:22:03.741Z,100431.28
2023-05-20T10:24:33.615Z,100420.06
2023-05-20T10:27:03.806Z,100418.16
2023-05-20T10:29:44.482Z,100422.19
2023-05-20T10:32:12.895Z,100415.66
2023-05-20T10:34:48.408Z,100408.25
2023-05-20T10:37:26.689Z,100415.66
2023-05-20T10:40:05.225Z,100435.59
2023-05-20T10:42:33.740Z,100419.59
2023-05-20T10:45:04.251Z,100408.28
2023-05-20T10:47:32.730Z,100422.63
2023-05-20T10:50:02.256Z,100407.47
2023-05-20T10:52:35.346Z,100413.75
2023-05-20T10:55:05.714Z,100410.59
2023-05-20T10:57:35.583Z,100397.31
2023-05-20T11:00:11.834Z,100403.16
2023-05-20T11:02:40.938Z,100394.59
2023-05-20T11:05:12.817Z,100399.25
2023-05-20T11:07:41.308Z,100390.69
2023-05-20T11:10:11.125Z,100388.63
2023-05-20T11:12:40.605Z,100381.53
2023-05-20T11:15:13.285Z,100381.47
2023-05-20T11:17:54.023Z,100380.50
2023-05-20T11:20:22.841Z,100375.72
2023-05-20T11:22:51.590Z,100385.63
2023-05-20T11:25:20.788Z,100392.66
2023-05-20T11:27:49.248Z,100388.31
2023-05-20T11:30:20.688Z,100412.16
2023-05-20T11:32:59.520Z,100403.56
2023-05-20T11:35:30.269Z,100404.34
2023-05-20T11:37:59.504Z,100397.28
2023-05-20T11:40:35.715Z,100400.81
2023-05-20T11:43:13.102Z,100401.63
2023-05-20T11:45:43.777Z,100396.53
2023-05-20T11:48:14.814Z,100392.63
2023-05-20T11:50:44.293Z,100417.16
2023-05-20T11:53:16.062Z,100405.75
2023-05-20T11:55:48.179Z,100390.91
2023-05-20T11:58:21.807Z,100406.94
2023-05-20T12:00:57.182Z,100384.56
2023-05-20T12:03:32.090Z,100375.31
2023-05-20T12:06:02.999Z,100383.91
2023-05-20T12:08:31.333Z,100372.91
2023-05-20T12:10:59.860Z,100360.09
2023-05-20T12:13:28.146Z,100361.38
2023-05-20T12:15:57.934Z,100364.16
2023-05-20T12:18:26.441Z,100355.16
2023-05-20T12:20:54.714Z,100373.50
2023-05-20T12:23:22.992Z,100353.97
2023-05-20T12:25:51.719Z,100359.06
2023-05-20T12:28:20.124Z,100352.44
2023-05-20T12:30:48.462Z,100356.72
2023-05-20T12:33:18.313Z,100353.59
2023-05-20T12:35:46.976Z,100361.78
2023-05-20T12:38:15.303Z,100339.16
2023-05-20T12:40:44.201Z,100341.88
2023-05-20T12:43:12.468Z,100333.31
2023-05-20T12:45:40.858Z,100334.84
2023-05-20T12:48:09.403Z,100334.06
2023-05-20T12:50:39.169Z,100336.84
2023-05-20T12:53:07.479Z,100343.44
2023-05-20T12:55:35.779Z,100331.72
2023-05-20T12:58:04.129Z,100335.63
2023-05-20T13:00:32.862Z,100327.47
2023-05-20T13:03:01.428Z,100322.75
2023-05-20T13:05:29.749Z,100319.25
2023-05-20T13:07:59.488Z,100315.75
2023-05-20T13:10:27.821Z,100322.28
2023-05-20T13:12:56.374Z,100324.97
2023-05-20T13:15:25.065Z,100321.13
2023-05-20T13:17:54.433Z,100317.72
2023-05-20T13:20:23.188Z,100315.75
2023-05-20T13:22:51.652Z,100316.88
2023-05-20T13:25:21.744Z,100316.13
2023-05-20T13:27:50.062Z,100312.22
2023-05-20T13:30:18.400Z,100300.50
2023-05-20T13:32:46.860Z,100303.97
2023-05-20T13:35:16.980Z,100313.34
2023-05-20T13:37:45.561Z,100301.22
2023-05-20T13:40:14.681Z,100310.81
2023-05-20T13:42:44.883Z,100328.28
2023-05-20T13:45:13.532Z,100321.13
2023-05-20T13:47:42.826Z,100322.59
2023-05-20T13:50:12.442Z,100329.16
2023-05-20T13:52:40.761Z,100314.66
2023-05-20T13:55:09.896Z,100328.34
2023-05-20T13:57:38.333Z,100316.63
2023-05-20T14:00:10.038Z,100329.88
2023-05-20T14:02:38.479Z,100313.38
2023-05-20T14:05:08.565Z,100304.94
2023-05-20T14:07:37.120Z,100303.84
2023-05-20T14:10:06.549Z,100313.00
2023-05-20T14:12:34.905Z,100306.78
2023-05-20T14:15:03.228Z,100299.31
2023-05-20T14:17:33.030Z,100305.69
2023-05-20T14:20:02.025Z,100308.06
2023-05-20T14:22:30.498Z,100321.94
2023-05-20T14:24:59.566Z,100314.19
2023-05-20T14:27:27.919Z,100313.38
2023-05-20T14:29:56.304Z,100316.44
2023-05-20T14:32:24.892Z,100309.31
2023-05-20T14:34:55.005Z,100308.22
2023-05-20T14:37:23.292Z,100301.94
2023-05-20T14:39:51.776Z,100312.34
2023-05-20T14:42:20.107Z,100312.63
2023-05-20T14:44:49.801Z,100315.13
2023-05-20T14:47:21.529Z,100305.34
2023-05-20T14:49:51.308Z,100311.09
2023-05-20T14:52:21.201Z,100304.97
2023-05-20T14:54:49.512Z,100297.19
2023-05-20T14:57:17.934Z,100304.38
2023-05-20T14:59:47.801Z,100296.22
2023-05-20T15:02:17.183Z,100297.34
2023-05-20T15:04:47.031Z,100300.78
2023-05-20T15:07:15.796Z,100295.47
2023-05-20T15:09:45.501Z,100297.06
2023-05-20T15:12:14.041Z,100303.31
2023-05-20T15:14:42.435Z,100283.44
2023-05-20T15:17:11.085Z,100298.25
2023-05-20T15:19:41.937Z,100299.94
2023-05-20T15:22:10.448Z,100291.88
2023-05-20T15:24:38.744Z,100286.81
2023-05-20T15:27:08.535Z,100281.34
2023-05-20T15:29:38.858Z,100277.97
2023-05-20T15:32:08.762Z,100281.72
2023-05-20T15:34:38.099Z,100274.75
2023-05-20T15:37:06.592Z,100272.03
2023-05-20T15:39:38.892Z,100273.91
2023-05-20T15:42:14.120Z,100278.59
2023-05-20T15:44:42.485Z,100277.91
2023-05-20T15:47:10.915Z,100283.34
2023-05-20T15:49:39.339Z,100286.75
2023-05-20T15:52:08.163Z,100286.00
2023-05-20T15:54:36.505Z,100291.13
2023-05-20T15:57:05.219Z,100278.28
2023-05-20T15:59:35.153Z,100275.53
2023-05-20T16:02:03.670Z,100278.66
2023-05-20T16:04:32.702Z,100267.31
2023-05-20T16:07:01.399Z,100273.97
2023-05-20T16:09:29.709Z,100264.59
2023-05-20T16:11:58.041Z,100270.44
2023-05-20T16:14:26.557Z,100265.34
2023-05-20T16:16:56.343Z,100264.97
2023-05-20T16:19:24.672Z,100266.13
2023-05-20T16:21:52.959Z,100265.81
2023-05-20T16:24:22.395Z,100254.44
2023-05-20T16:26:50.771Z,100255.22
2023-05-20T16:29:19.064Z,100257.56
2023-05-20T16:31:47.811Z,100252.19
2023-05-20T16:34:17.743Z,100252.94
2023-05-20T16:36:46.489Z,100240.88
2023-05-20T16:39:14.950Z,100245.59
2023-05-20T16:41:44.196Z,100243.25
2023-05-20T16:44:12.561Z,100233.94
2023-05-20T16:46:40.915Z,100237.41
2023-05-20T16:49:09.196Z,100256.88
2023-05-20T16:51:39.197Z,100260.75
2023-05-20T16:54:08.354Z,100243.19
2023-05-20T16:56:37.222Z,100244.78
2023-05-20T16:59:05.747Z,100245.16
2023-05-20T17:01:34.403Z,100252.94
2023-05-20T17:04:02.896Z,100252.53
2023-05-20T17:06:34.478Z,100252.94
2023-05-20T17:09:04.789Z,100245.09
2023-05-20T17:11:33.166Z,100241.16
2023-05-20T17:14:03.162Z,100241.59
2023-05-20T17:16:31.633Z,100240.78
2023-05-20T17:19:00.050Z,100235.34
2023-05-20T17:21:28.526Z,100242.69
2023-05-20T17:23:57.017Z,100249.66
2023-05-20T17:26:26.747Z,100229.06
2023-05-20T17:28:55.231Z,100244.19
2023-05-20T17:31:23.663Z,100230.56
2023-05-20T17:33:52.404Z,100234.00
2023-05-20T17:36:22.678Z,100233.59
2023-05-20T17:38:51.546Z,100233.59
2023-05-20T17:41:20.030Z,100222.34
2023-05-20T17:43:49.955Z,100229.66
2023-05-20T17:46:18.517Z,100238.13
2023-05-20T17:48:46.773Z,100238.22
2023-05-20T17:51:15.492Z,100243.63
2023-05-20T17:53:43.826Z,100251.34
2023-05-20T17:56:12.384Z,100253.63
2023-05-20T17:58:41.628Z,100261.72
2023-05-20T18:01:11.391Z,100253.13
2023-05-20T18:03:40.829Z,100255.38
2023-05-20T18:06:09.507Z,100253.34
2023-05-20T18:08:37.899Z,100261.16
2023-05-20T18:11:06.446Z,100262.66
2023-05-20T18:13:34.710Z,100252.44
2023-05-20T18:16:03.295Z,100243.44
2023-05-20T18:18:33.094Z,100250.06
2023-05-20T18:21:01.434Z,100245.28
2023-05-20T18:23:29.816Z,100247.59
2023-05-20T18:25:58.294Z,100247.22
2023-05-20T18:28:26.741Z,100242.16
2023-05-20T18:30:55.783Z,100251.00
2023-05-20T18:33:24.896Z,100241.69
2023-05-20T18:35:55.137Z,100252.94
2023-05-20T18:38:23.499Z,100253.41
2023-05-20T18:40:51.995Z,100254.91
2023-05-20T18:43:20.444Z,100264.91
2023-05-20T18:45:48.749Z,100245.50
2023-05-20T18:48:26.268Z,100260.53
2023-05-20T18:50:58.768Z,100248.47
2023-05-20T18:53:27.125Z,100251.13
2023-05-20T18:55:56.134Z,100246.78
2023-05-20T18:58:24.501Z,100237.88
2023-05-20T19:00:52.882Z,100244.81
2023-05-20T19:03:21.469Z,100241.69
2023-05-20T19:05:49.852Z,100233.53
2023-05-20T19:08:19.685Z,100232.34
2023-05-20T19:10:48.184Z,100237.69
2023-05-20T19:13:16.569Z,100218.69
2023-05-20T19:15:44.982Z,100226.50
2023-05-20T19:18:14.326Z,100226.00
2023-05-20T19:20:42.780Z,100229.44
2023-05-20T19:23:11.224Z,100218.47
2023-05-20T19:25:40.952Z,100225.41
2023-05-20T19:28:09.357Z,100217.72
2023-05-20T19:30:37.862Z,100230.81
2023-05-20T19:33:07.002Z,100229.59
2023-05-20T19:35:35.671Z,100226.00
2023-05-20T19:38:05.102Z,100217.19
2023-05-20T19:40:33.601Z,100230.03
2023-05-20T19:43:03.398Z,100223.06
2023-05-20T19:45:32.391Z,100219.09
2023-05-20T19:48:00.912Z,100215.34
2023-05-20T19:50:29.417Z,100216.59
2023-05-20T19:52:58.493Z,100216.16
2023-05-20T19:55:26.940Z,100203.03
2023-05-20T19:57:55.910Z,100215.25
2023-05-20T20:00:25.744Z,100201.09
2023-05-20T20:02:54.291Z,100199.69
2023-05-20T20:05:23.966Z,100190.69
2023-05-20T20:07:52.398Z,100185.13
2023-05-20T20:10:21.016Z,100188.63
2023-05-20T20:12:49.914Z,100186.56
2023-05-20T20:15:20.557Z,100183.56
2023-05-20T20:17:52.465Z,100180.78
2023-05-20T20:20:21.141Z,100185.00
2023-05-20T20:22:49.683Z,100182.56
2023-05-20T20:25:18.647Z,100183.38
2023-05-20T20:27:48.696Z,100195.38
2023-05-20T20:30:17.262Z,100193.44
2023-05-20T20:32:48.464Z,100197.66
2023-05-20T20:35:18.662Z,100200.28
2023-05-20T20:37:47.057Z,100198.72
2023-05-20T20:40:15.457Z,100200.03
2023-05-20T20:42:45.426Z,100208.53
2023-05-20T20:45:13.781Z,100211.63
2023-05-20T20:47:43.955Z,100222.72
2023-05-20T20:50:12.882Z,100224.44
2023-05-20T20:52:42.805Z,100222.09
2023-05-20T20:55:11.840Z,100220.59
2023-05-20T20:57:42.085Z,100225.56
2023-05-20T21:00:16.677Z,100226.59
2023-05-20T21:02:45.258Z,100222.75
2023-05-20T21:05:14.537Z,100215.34
2023-05-20T21:07:46.230Z,100215.25
2023-05-20T21:10:14.771Z,100225.72
2023-05-20T21:12:43.172Z,100216.06
2023-05-20T21:15:15.129Z,100211.56
2023-05-20T21:17:43.606Z,100213.06
2023-05-20T21:20:13.411Z,100212.00
2023-05-20T21:22:41.891Z,100207.78
2023-05-20T21:25:11.730Z,100211.84
2023-05-20T21:27:41.426Z,100204.06
2023-05-20T21:30:11.078Z,100185.41
2023-05-20T21:32:39.970Z,100194.94
2023-05-20T21:35:09.644Z,100196.88
2023-05-20T21:37:37.944Z,100190.66
2023-05-20T21:40:07.614Z,100185.91
2023-05-20T21:42:37.925Z,100189.72
2023-05-20T21:45:07.461Z,100191.19
2023-05-20T21:47:36.062Z,100179.06
2023-05-20T21:50:04.737Z,100181.06
2023-05-20T21:52:33.252Z,100169.75
2023-05-20T21:55:01.609Z,100172.53
2023-05-20T21:57:29.945Z,100164.69
2023-05-20T21:59:59.692Z,100162.75
2023-05-20T22:02:28.219Z,100163.91
2023-05-20T22:04:57.767Z,100161.84
2023-05-20T22:07:26.329Z,100165.81
2023-05-20T22:09:54.877Z,100160.78
2023-05-20T22:12:23.296Z,100156.13
2023-05-20T22:14:51.633Z,100157.25
2023-05-20T22:17:21.917Z,100163.91
2023-05-20T22:19:50.457Z,100153.06
2023-05-20T22:22:19.028Z,100159.47
2023-05-20T22:24:47.659Z,100159.53
2023-05-20T22:27:15.964Z,100161.53
2023-05-20T22:29:44.433Z,100152.78
2023-05-20T22:32:12.744Z,100152.69
2023-05-20T22:34:42.905Z,100159.97
2023-05-20T22:37:11.914Z,100158.19
2023-05-20T22:39:40.408Z,100150.84
2023-05-20T22:42:08.759Z,100150.06
2023-05-20T22:44:37.122Z,100145.84
2023-05-20T22:47:05.700Z,100149.56
2023-05-20T22:49:34.042Z,100147.09
2023-05-20T22:52:03.773Z,100149.41
2023-05-20T22:54:32.118Z,100157.50
2023-05-20T22:57:00.453Z,100150.09
2023-05-20T22:59:31.183Z,100145.81
2023-05-20T23:01:59.487Z,100149.75
2023-05-20T23:04:27.873Z,100155.69
2023-05-20T23:06:59.178Z,100157.63
2023-05-20T23:09:29.323Z,100154.69
2023-05-20T23:11:57.605Z,100146.44
2023-05-20T23:14:26.097Z,100152.78
2023-05-20T23:16:54.546Z,100157.84
2023-05-20T23:19:23.081Z,100147.00
2023-05-20T23:21:51.518Z,100132.78
2023-05-20T23:24:19.907Z,100144.56
2023-05-20T23:26:49.644Z,100146.16
2023-05-20T23:29:18.064Z,100147.97
2023-05-20T23:31:47.598Z,100149.63
2023-05-20T23:34:17.105Z,100142.72
2023-05-20T23:36:45.817Z,100136.09
2023-05-20T23:39:15.234Z,100133.31
2023-05-20T23:41:45.195Z,100132.59
2023-05-20T23:44:15.281Z,100147.78
2023-05-20T23:46:45.034Z,100140.94
2023-05-20T23:49:13.395Z,100137.59
2023-05-20T23:51:42.242Z,100131.53
2023-05-20T23:54:10.570Z,100126.50
2023-05-20T23:56:38.914Z,100136.53
2023-05-20T23:59:07.349Z,100137.66
